sensor_id;sensor_type;location;lat;lon;timestamp;P1;durP1;ratioP1;P2;durP2;ratioP2
19653;SDS011;9975;48.046;7.804;2022-07-18T02:04:09;2.60;;;2.40;;
19653;SDS011;9975;48.046;7.804;2022-07-18T02:06:34;2.80;;;2.53;;
19653;SDS011;9975;48.046;7.804;2022-07-18T02:09:00;2.43;;;2.23;;
19653;SDS011;9975;48.046;7.804;2022-07-18T02:11:25;4.90;;;3.30;;
19653;SDS011;9975;48.046;7.804;2022-07-18T02:13:51;3.20;;;2.87;;
19653;SDS011;9975;48.046;7.804;2022-07-18T02:16:17;2.77;;;2.57;;
19653;SDS011;9975;48.046;7.804;2022-07-18T02:18:43;3.53;;;3.23;;
19653;SDS011;9975;48.046;7.804;2022-07-18T02:21:09;6.40;;;3.20;;
19653;SDS011;9975;48.046;7.804;2022-07-18T02:23:35;5.03;;;2.70;;
19653;SDS011;9975;48.046;7.804;2022-07-18T02:26:01;3.20;;;2.43;;
19653;SDS011;9975;48.046;7.804;2022-07-18T02:28:29;3.20;;;2.77;;
19653;SDS011;9975;48.046;7.804;2022-07-18T02:30:54;2.60;;;2.40;;
19653;SDS011;9975;48.046;7.804;2022-07-18T02:33:20;7.47;;;2.83;;
19653;SDS011;9975;48.046;7.804;2022-07-18T02:35:45;6.90;;;3.00;;
19653;SDS011;9975;48.046;7.804;2022-07-18T02:38:11;3.57;;;2.30;;
19653;SDS011;9975;48.046;7.804;2022-07-18T02:40:37;3.00;;;2.70;;
19653;SDS011;9975;48.046;7.804;2022-07-18T02:43:03;4.40;;;2.67;;
19653;SDS011;9975;48.046;7.804;2022-07-18T02:45:28;3.80;;;2.63;;
19653;SDS011;9975;48.046;7.804;2022-07-18T02:47:54;3.77;;;2.77;;
19653;SDS011;9975;48.046;7.804;2022-07-18T02:50:20;3.20;;;2.80;;
19653;SDS011;9975;48.046;7.804;2022-07-18T02:52:46;2.60;;;2.40;;
19653;SDS011;9975;48.046;7.804;2022-07-18T02:55:12;5.00;;;2.60;;
19653;SDS011;9975;48.046;7.804;2022-07-18T02:57:38;4.43;;;2.77;;
19653;SDS011;9975;48.046;7.804;2022-07-18T03:00:05;3.60;;;2.37;;
19653;SDS011;9975;48.046;7.804;2022-07-18T03:02:33;3.23;;;2.93;;
19653;SDS011;9975;48.046;7.804;2022-07-18T03:04:59;2.77;;;2.40;;
19653;SDS011;9975;48.046;7.804;2022-07-18T03:07:25;3.90;;;2.60;;
19653;SDS011;9975;48.046;7.804;2022-07-18T03:09:51;3.30;;;3.00;;
19653;SDS011;9975;48.046;7.804;2022-07-18T03:12:17;4.43;;;2.43;;
19653;SDS011;9975;48.046;7.804;2022-07-18T03:14:43;4.73;;;3.20;;
19653;SDS011;9975;48.046;7.804;2022-07-18T03:17:09;2.50;;;2.23;;
19653;SDS011;9975;48.046;7.804;2022-07-18T03:19:35;3.63;;;3.20;;
19653;SDS011;9975;48.046;7.804;2022-07-18T03:22:01;4.73;;;3.17;;
19653;SDS011;9975;48.046;7.804;2022-07-18T03:24:27;3.97;;;2.70;;
19653;SDS011;9975;48.046;7.804;2022-07-18T03:26:53;3.10;;;2.80;;
19653;SDS011;9975;48.046;7.804;2022-07-18T03:29:19;6.03;;;3.20;;
19653;SDS011;9975;48.046;7.804;2022-07-18T03:31:44;5.20;;;2.90;;
19653;SDS011;9975;48.046;7.804;2022-07-18T03:34:10;3.90;;;3.00;;
19653;SDS011;9975;48.046;7.804;2022-07-18T03:36:36;8.17;;;3.30;;
19653;SDS011;9975;48.046;7.804;2022-07-18T03:39:03;3.37;;;2.77;;
19653;SDS011;9975;48.046;7.804;2022-07-18T03:41:29;3.17;;;2.40;;
19653;SDS011;9975;48.046;7.804;2022-07-18T03:43:55;4.80;;;2.80;;
19653;SDS011;9975;48.046;7.804;2022-07-18T03:46:21;11.20;;;2.60;;
19653;SDS011;9975;48.046;7.804;2022-07-18T03:48:46;9.03;;;3.97;;
19653;SDS011;9975;48.046;7.804;2022-07-18T03:51:12;4.63;;;2.80;;
19653;SDS011;9975;48.046;7.804;2022-07-18T03:53:38;3.60;;;3.30;;
19653;SDS011;9975;48.046;7.804;2022-07-18T03:56:03;4.63;;;3.10;;
19653;SDS011;9975;48.046;7.804;2022-07-18T03:58:29;3.87;;;3.20;;
19653;SDS011;9975;48.046;7.804;2022-07-18T04:00:55;3.33;;;2.90;;
19653;SDS011;9975;48.046;7.804;2022-07-18T04:03:20;3.87;;;3.00;;
19653;SDS011;9975;48.046;7.804;2022-07-18T04:05:47;6.03;;;2.73;;
19653;SDS011;9975;48.046;7.804;2022-07-18T04:08:13;4.00;;;2.67;;
19653;SDS011;9975;48.046;7.804;2022-07-18T04:10:39;6.60;;;3.37;;
19653;SDS011;9975;48.046;7.804;2022-07-18T04:13:05;10.00;;;3.10;;
19653;SDS011;9975;48.046;7.804;2022-07-18T04:15:32;6.17;;;3.27;;
19653;SDS011;9975;48.046;7.804;2022-07-18T04:17:58;4.43;;;3.07;;
19653;SDS011;9975;48.046;7.804;2022-07-18T04:20:24;3.97;;;3.40;;
19653;SDS011;9975;48.046;7.804;2022-07-18T04:22:51;5.00;;;3.47;;
19653;SDS011;9975;48.046;7.804;2022-07-18T04:25:18;4.43;;;3.10;;
19653;SDS011;9975;48.046;7.804;2022-07-18T04:27:45;4.87;;;2.90;;
19653;SDS011;9975;48.046;7.804;2022-07-18T04:30:12;5.10;;;3.60;;
19653;SDS011;9975;48.046;7.804;2022-07-18T04:32:38;5.33;;;3.30;;
19653;SDS011;9975;48.046;7.804;2022-07-18T04:35:04;9.57;;;3.80;;
19653;SDS011;9975;48.046;7.804;2022-07-18T04:37:31;8.93;;;4.20;;
19653;SDS011;9975;48.046;7.804;2022-07-18T04:39:57;3.87;;;3.53;;
19653;SDS011;9975;48.046;7.804;2022-07-18T04:42:23;6.23;;;3.50;;
19653;SDS011;9975;48.046;7.804;2022-07-18T04:44:49;7.40;;;3.00;;
19653;SDS011;9975;48.046;7.804;2022-07-18T04:47:15;4.93;;;3.50;;
19653;SDS011;9975;48.046;7.804;2022-07-18T04:49:40;5.00;;;3.70;;
19653;SDS011;9975;48.046;7.804;2022-07-18T04:52:06;8.33;;;3.93;;
19653;SDS011;9975;48.046;7.804;2022-07-18T04:54:31;6.47;;;3.80;;
19653;SDS011;9975;48.046;7.804;2022-07-18T04:56:57;4.47;;;3.60;;
19653;SDS011;9975;48.046;7.804;2022-07-18T04:59:23;4.40;;;3.70;;
19653;SDS011;9975;48.046;7.804;2022-07-18T05:01:48;4.23;;;2.80;;
19653;SDS011;9975;48.046;7.804;2022-07-18T05:04:14;4.90;;;4.03;;
19653;SDS011;9975;48.046;7.804;2022-07-18T05:06:39;12.10;;;3.70;;
19653;SDS011;9975;48.046;7.804;2022-07-18T05:09:05;4.27;;;3.57;;
19653;SDS011;9975;48.046;7.804;2022-07-18T05:11:31;5.10;;;3.70;;
19653;SDS011;9975;48.046;7.804;2022-07-18T05:13:56;6.77;;;3.33;;
19653;SDS011;9975;48.046;7.804;2022-07-18T05:16:22;4.83;;;3.50;;
19653;SDS011;9975;48.046;7.804;2022-07-18T05:18:47;3.77;;;3.17;;
19653;SDS011;9975;48.046;7.804;2022-07-18T05:21:13;5.90;;;3.90;;
19653;SDS011;9975;48.046;7.804;2022-07-18T05:23:38;4.83;;;3.80;;
19653;SDS011;9975;48.046;7.804;2022-07-18T05:26:04;3.87;;;3.47;;
19653;SDS011;9975;48.046;7.804;2022-07-18T05:28:30;7.73;;;3.77;;
19653;SDS011;9975;48.046;7.804;2022-07-18T05:30:56;5.20;;;3.80;;
19653;SDS011;9975;48.046;7.804;2022-07-18T05:33:21;5.37;;;3.70;;
19653;SDS011;9975;48.046;7.804;2022-07-18T05:35:47;4.80;;;3.70;;
19653;SDS011;9975;48.046;7.804;2022-07-18T05:38:12;4.40;;;3.80;;
19653;SDS011;9975;48.046;7.804;2022-07-18T05:40:38;4.20;;;3.60;;
19653;SDS011;9975;48.046;7.804;2022-07-18T05:43:04;6.33;;;3.70;;
19653;SDS011;9975;48.046;7.804;2022-07-18T05:45:29;6.37;;;4.00;;
19653;SDS011;9975;48.046;7.804;2022-07-18T05:47:55;4.37;;;3.63;;
19653;SDS011;9975;48.046;7.804;2022-07-18T05:50:21;7.20;;;4.00;;
19653;SDS011;9975;48.046;7.804;2022-07-18T05:52:48;3.63;;;3.33;;
19653;SDS011;9975;48.046;7.804;2022-07-18T05:55:14;6.70;;;3.37;;
19653;SDS011;9975;48.046;7.804;2022-07-18T05:57:40;6.13;;;3.47;;
19653;SDS011;9975;48.046;7.804;2022-07-18T06:00:07;5.73;;;3.70;;
19653;SDS011;9975;48.046;7.804;2022-07-18T06:02:34;6.30;;;3.70;;
19653;SDS011;9975;48.046;7.804;2022-07-18T06:05:01;3.80;;;2.63;;
19653;SDS011;9975;48.046;7.804;2022-07-18T06:07:28;3.90;;;3.50;;
19653;SDS011;9975;48.046;7.804;2022-07-18T06:09:53;4.80;;;3.47;;
19653;SDS011;9975;48.046;7.804;2022-07-18T06:12:19;10.77;;;4.17;;
19653;SDS011;9975;48.046;7.804;2022-07-18T06:14:46;6.20;;;3.90;;
19653;SDS011;9975;48.046;7.804;2022-07-18T06:17:11;7.17;;;3.90;;
19653;SDS011;9975;48.046;7.804;2022-07-18T06:19:37;4.50;;;3.60;;
19653;SDS011;9975;48.046;7.804;2022-07-18T06:22:04;10.60;;;3.60;;
19653;SDS011;9975;48.046;7.804;2022-07-18T06:24:30;3.27;;;2.93;;
19653;SDS011;9975;48.046;7.804;2022-07-18T06:26:56;6.50;;;3.30;;
19653;SDS011;9975;48.046;7.804;2022-07-18T06:29:21;6.40;;;4.63;;
19653;SDS011;9975;48.046;7.804;2022-07-18T06:31:47;6.10;;;2.77;;
19653;SDS011;9975;48.046;7.804;2022-07-18T06:34:13;26.77;;;4.50;;
19653;SDS011;9975;48.046;7.804;2022-07-18T06:36:38;5.73;;;3.43;;
19653;SDS011;9975;48.046;7.804;2022-07-18T06:39:04;4.67;;;3.70;;
19653;SDS011;9975;48.046;7.804;2022-07-18T06:41:35;5.20;;;3.37;;
19653;SDS011;9975;48.046;7.804;2022-07-18T06:44:02;4.27;;;3.10;;
19653;SDS011;9975;48.046;7.804;2022-07-18T06:46:27;6.50;;;3.43;;
19653;SDS011;9975;48.046;7.804;2022-07-18T06:48:53;5.20;;;3.57;;
19653;SDS011;9975;48.046;7.804;2022-07-18T06:51:19;3.40;;;2.90;;
19653;SDS011;9975;48.046;7.804;2022-07-18T06:53:44;4.00;;;2.63;;
19653;SDS011;9975;48.046;7.804;2022-07-18T06:56:15;3.37;;;2.57;;
19653;SDS011;9975;48.046;7.804;2022-07-18T06:58:41;3.27;;;2.40;;
19653;SDS011;9975;48.046;7.804;2022-07-18T07:01:07;3.10;;;2.80;;
19653;SDS011;9975;48.046;7.804;2022-07-18T07:03:32;8.80;;;4.03;;
19653;SDS011;9975;48.046;7.804;2022-07-18T07:05:58;7.50;;;2.70;;
19653;SDS011;9975;48.046;7.804;2022-07-18T07:08:23;3.43;;;2.80;;
19653;SDS011;9975;48.046;7.804;2022-07-18T07:10:49;3.80;;;2.80;;
19653;SDS011;9975;48.046;7.804;2022-07-18T07:13:15;3.63;;;3.10;;
19653;SDS011;9975;48.046;7.804;2022-07-18T07:15:40;4.07;;;3.07;;
19653;SDS011;9975;48.046;7.804;2022-07-18T07:18:08;3.50;;;2.67;;
19653;SDS011;9975;48.046;7.804;2022-07-18T07:20:34;3.40;;;3.10;;
19653;SDS011;9975;48.046;7.804;2022-07-18T07:22:59;5.20;;;2.90;;
19653;SDS011;9975;48.046;7.804;2022-07-18T07:25:29;5.57;;;3.17;;
19653;SDS011;9975;48.046;7.804;2022-07-18T07:27:55;5.83;;;3.23;;
19653;SDS011;9975;48.046;7.804;2022-07-18T07:30:21;3.30;;;3.00;;
19653;SDS011;9975;48.046;7.804;2022-07-18T07:32:47;3.60;;;2.50;;
19653;SDS011;9975;48.046;7.804;2022-07-18T07:35:14;3.40;;;2.50;;
19653;SDS011;9975;48.046;7.804;2022-07-18T07:37:42;3.57;;;2.90;;
19653;SDS011;9975;48.046;7.804;2022-07-18T07:40:10;6.83;;;3.00;;
19653;SDS011;9975;48.046;7.804;2022-07-18T07:42:36;3.33;;;2.53;;
19653;SDS011;9975;48.046;7.804;2022-07-18T07:45:02;3.07;;;2.77;;
19653;SDS011;9975;48.046;7.804;2022-07-18T07:47:29;2.27;;;2.13;;
19653;SDS011;9975;48.046;7.804;2022-07-18T07:49:55;3.70;;;2.80;;
19653;SDS011;9975;48.046;7.804;2022-07-18T07:52:21;5.00;;;2.70;;
19653;SDS011;9975;48.046;7.804;2022-07-18T07:54:48;3.23;;;2.60;;
19653;SDS011;9975;48.046;7.804;2022-07-18T07:57:16;5.43;;;2.93;;
19653;SDS011;9975;48.046;7.804;2022-07-18T07:59:42;5.50;;;3.63;;
19653;SDS011;9975;48.046;7.804;2022-07-18T08:02:08;5.03;;;3.07;;
19653;SDS011;9975;48.046;7.804;2022-07-18T08:04:34;2.87;;;2.40;;
19653;SDS011;9975;48.046;7.804;2022-07-18T08:07:00;2.77;;;2.57;;
19653;SDS011;9975;48.046;7.804;2022-07-18T08:09:26;4.23;;;2.70;;
19653;SDS011;9975;48.046;7.804;2022-07-18T08:11:51;2.90;;;2.70;;
19653;SDS011;9975;48.046;7.804;2022-07-18T08:14:17;5.50;;;2.43;;
19653;SDS011;9975;48.046;7.804;2022-07-18T08:16:43;6.77;;;2.80;;
19653;SDS011;9975;48.046;7.804;2022-07-18T08:19:08;3.10;;;2.60;;
19653;SDS011;9975;48.046;7.804;2022-07-18T08:21:34;3.17;;;2.80;;
19653;SDS011;9975;48.046;7.804;2022-07-18T08:24:00;8.13;;;2.60;;
19653;SDS011;9975;48.046;7.804;2022-07-18T08:26:26;6.53;;;2.43;;
19653;SDS011;9975;48.046;7.804;2022-07-18T08:28:52;2.50;;;2.23;;
19653;SDS011;9975;48.046;7.804;2022-07-18T08:31:17;3.30;;;2.60;;
19653;SDS011;9975;48.046;7.804;2022-07-18T08:33:44;2.80;;;2.10;;
19653;SDS011;9975;48.046;7.804;2022-07-18T08:36:10;8.97;;;2.97;;
19653;SDS011;9975;48.046;7.804;2022-07-18T08:38:36;2.50;;;2.30;;
19653;SDS011;9975;48.046;7.804;2022-07-18T08:41:02;2.97;;;2.73;;
19653;SDS011;9975;48.046;7.804;2022-07-18T08:43:29;2.80;;;2.40;;
19653;SDS011;9975;48.046;7.804;2022-07-18T08:45:56;3.20;;;2.20;;
19653;SDS011;9975;48.046;7.804;2022-07-18T08:48:27;3.83;;;2.63;;
19653;SDS011;9975;48.046;7.804;2022-07-18T08:50:52;4.50;;;2.40;;
19653;SDS011;9975;48.046;7.804;2022-07-18T08:53:18;2.80;;;2.50;;
19653;SDS011;9975;48.046;7.804;2022-07-18T08:55:45;2.47;;;2.20;;
19653;SDS011;9975;48.046;7.804;2022-07-18T08:58:12;3.50;;;2.60;;
19653;SDS011;9975;48.046;7.804;2022-07-18T09:00:39;3.83;;;2.50;;
19653;SDS011;9975;48.046;7.804;2022-07-18T09:03:05;2.47;;;2.27;;
19653;SDS011;9975;48.046;7.804;2022-07-18T09:05:31;3.10;;;2.80;;
19653;SDS011;9975;48.046;7.804;2022-07-18T09:08:11;2.57;;;2.37;;
19653;SDS011;9975;48.046;7.804;2022-07-18T09:10:50;2.83;;;2.20;;
19653;SDS011;9975;48.046;7.804;2022-07-18T09:13:17;3.40;;;2.70;;
19653;SDS011;9975;48.046;7.804;2022-07-18T09:18:37;4.83;;;2.80;;
19653;SDS011;9975;48.046;7.804;2022-07-18T09:21:08;3.37;;;3.00;;
19653;SDS011;9975;48.046;7.804;2022-07-18T09:23:37;5.30;;;2.83;;
19653;SDS011;9975;48.046;7.804;2022-07-18T09:26:04;4.67;;;2.70;;
19653;SDS011;9975;48.046;7.804;2022-07-18T09:28:50;4.00;;;2.53;;
19653;SDS011;9975;48.046;7.804;2022-07-18T09:31:19;2.87;;;2.40;;
19653;SDS011;9975;48.046;7.804;2022-07-18T09:33:52;3.70;;;3.40;;
19653;SDS011;9975;48.046;7.804;2022-07-18T09:36:26;4.43;;;2.70;;
19653;SDS011;9975;48.046;7.804;2022-07-18T09:38:53;3.13;;;2.67;;
19653;SDS011;9975;48.046;7.804;2022-07-18T09:41:23;2.87;;;2.67;;
19653;SDS011;9975;48.046;7.804;2022-07-18T09:43:49;13.53;;;3.47;;
19653;SDS011;9975;48.046;7.804;2022-07-18T09:46:15;13.27;;;2.90;;
19653;SDS011;9975;48.046;7.804;2022-07-18T09:48:40;3.23;;;2.93;;
19653;SDS011;9975;48.046;7.804;2022-07-18T09:51:07;2.63;;;2.43;;
19653;SDS011;9975;48.046;7.804;2022-07-18T09:53:36;2.60;;;2.40;;
19653;SDS011;9975;48.046;7.804;2022-07-18T09:56:05;4.10;;;3.10;;
19653;SDS011;9975;48.046;7.804;2022-07-18T09:58:34;2.97;;;2.40;;
19653;SDS011;9975;48.046;7.804;2022-07-18T10:01:02;2.87;;;2.67;;
19653;SDS011;9975;48.046;7.804;2022-07-18T10:03:29;3.53;;;2.80;;
19653;SDS011;9975;48.046;7.804;2022-07-18T10:05:56;3.83;;;3.20;;
19653;SDS011;9975;48.046;7.804;2022-07-18T10:08:24;2.53;;;2.37;;
19653;SDS011;9975;48.046;7.804;2022-07-18T10:10:52;2.97;;;2.77;;
19653;SDS011;9975;48.046;7.804;2022-07-18T10:13:20;2.90;;;2.70;;
19653;SDS011;9975;48.046;7.804;2022-07-18T10:15:47;2.50;;;2.27;;
19653;SDS011;9975;48.046;7.804;2022-07-18T10:18:16;4.57;;;2.60;;
19653;SDS011;9975;48.046;7.804;2022-07-18T10:23:44;3.00;;;2.80;;
19653;SDS011;9975;48.046;7.804;2022-07-18T10:31:22;4.40;;;2.87;;
19653;SDS011;9975;48.046;7.804;2022-07-18T10:34:17;2.67;;;2.47;;
19653;SDS011;9975;48.046;7.804;2022-07-18T10:39:20;3.70;;;2.60;;
19653;SDS011;9975;48.046;7.804;2022-07-18T11:13:24;3.23;;;3.03;;
19653;SDS011;9975;48.046;7.804;2022-07-18T11:18:24;3.30;;;3.00;;
19653;SDS011;9975;48.046;7.804;2022-07-18T11:20:50;3.30;;;3.00;;
19653;SDS011;9975;48.046;7.804;2022-07-18T11:23:18;2.70;;;2.50;;
19653;SDS011;9975;48.046;7.804;2022-07-18T11:25:46;3.13;;;2.93;;
19653;SDS011;9975;48.046;7.804;2022-07-18T11:28:13;3.10;;;2.90;;
19653;SDS011;9975;48.046;7.804;2022-07-18T11:30:39;4.63;;;3.00;;
19653;SDS011;9975;48.046;7.804;2022-07-18T11:33:06;3.60;;;2.80;;
19653;SDS011;9975;48.046;7.804;2022-07-18T11:35:52;3.40;;;3.03;;
19653;SDS011;9975;48.046;7.804;2022-07-18T11:38:46;2.87;;;2.67;;
19653;SDS011;9975;48.046;7.804;2022-07-18T11:41:13;3.07;;;2.87;;
19653;SDS011;9975;48.046;7.804;2022-07-18T11:43:40;2.83;;;2.63;;
19653;SDS011;9975;48.046;7.804;2022-07-18T11:46:10;3.20;;;2.80;;
19653;SDS011;9975;48.046;7.804;2022-07-18T11:48:37;3.17;;;2.80;;
19653;SDS011;9975;48.046;7.804;2022-07-18T11:51:17;5.00;;;3.07;;
19653;SDS011;9975;48.046;7.804;2022-07-18T11:53:45;3.13;;;2.50;;
19653;SDS011;9975;48.046;7.804;2022-07-18T11:56:12;5.60;;;2.60;;
19653;SDS011;9975;48.046;7.804;2022-07-18T11:58:39;4.13;;;3.83;;
19653;SDS011;9975;48.046;7.804;2022-07-18T12:01:06;3.00;;;2.80;;
19653;SDS011;9975;48.046;7.804;2022-07-18T12:03:33;2.80;;;2.60;;
19653;SDS011;9975;48.046;7.804;2022-07-18T12:06:09;2.90;;;2.70;;
19653;SDS011;9975;48.046;7.804;2022-07-18T12:08:39;3.20;;;3.00;;
19653;SDS011;9975;48.046;7.804;2022-07-18T12:14:00;2.47;;;2.30;;
19653;SDS011;9975;48.046;7.804;2022-07-18T12:16:36;3.60;;;3.23;;
19653;SDS011;9975;48.046;7.804;2022-07-18T12:19:14;2.87;;;2.70;;
19653;SDS011;9975;48.046;7.804;2022-07-18T12:21:56;2.70;;;2.50;;
19653;SDS011;9975;48.046;7.804;2022-07-18T12:24:37;2.70;;;2.50;;
19653;SDS011;9975;48.046;7.804;2022-07-18T12:27:18;3.13;;;2.93;;
19653;SDS011;9975;48.046;7.804;2022-07-18T12:32:56;3.40;;;3.20;;
19653;SDS011;9975;48.046;7.804;2022-07-18T12:35:26;4.10;;;2.93;;
19653;SDS011;9975;48.046;7.804;2022-07-18T12:43:16;2.80;;;2.60;;
19653;SDS011;9975;48.046;7.804;2022-07-18T12:45:48;3.00;;;2.80;;
19653;SDS011;9975;48.046;7.804;2022-07-18T12:48:14;3.43;;;2.80;;
19653;SDS011;9975;48.046;7.804;2022-07-18T12:50:40;5.20;;;3.03;;
19653;SDS011;9975;48.046;7.804;2022-07-18T12:53:07;3.60;;;3.40;;
19653;SDS011;9975;48.046;7.804;2022-07-18T12:55:33;6.80;;;3.00;;
19653;SDS011;9975;48.046;7.804;2022-07-18T12:58:00;6.80;;;3.43;;
19653;SDS011;9975;48.046;7.804;2022-07-18T13:00:26;2.90;;;2.60;;
19653;SDS011;9975;48.046;7.804;2022-07-18T13:02:54;3.30;;;3.10;;
19653;SDS011;9975;48.046;7.804;2022-07-18T13:05:22;4.00;;;3.00;;
19653;SDS011;9975;48.046;7.804;2022-07-18T13:07:49;2.93;;;2.73;;
19653;SDS011;9975;48.046;7.804;2022-07-18T13:10:15;4.00;;;3.67;;
19653;SDS011;9975;48.046;7.804;2022-07-18T13:12:40;3.43;;;2.83;;
19653;SDS011;9975;48.046;7.804;2022-07-18T13:15:06;3.43;;;3.23;;
19653;SDS011;9975;48.046;7.804;2022-07-18T13:17:32;3.37;;;3.07;;
19653;SDS011;9975;48.046;7.804;2022-07-18T13:19:58;2.80;;;2.60;;
19653;SDS011;9975;48.046;7.804;2022-07-18T13:22:23;3.77;;;3.37;;
19653;SDS011;9975;48.046;7.804;2022-07-18T13:24:49;3.03;;;2.73;;
19653;SDS011;9975;48.046;7.804;2022-07-18T13:27:18;3.53;;;3.23;;
19653;SDS011;9975;48.046;7.804;2022-07-18T13:29:45;2.77;;;2.57;;
19653;SDS011;9975;48.046;7.804;2022-07-18T13:32:12;2.87;;;2.70;;
19653;SDS011;9975;48.046;7.804;2022-07-18T13:34:37;2.57;;;2.37;;
19653;SDS011;9975;48.046;7.804;2022-07-18T13:37:03;3.30;;;3.00;;
19653;SDS011;9975;48.046;7.804;2022-07-18T13:39:29;3.50;;;3.30;;
19653;SDS011;9975;48.046;7.804;2022-07-18T13:41:54;4.00;;;3.33;;
19653;SDS011;9975;48.046;7.804;2022-07-18T13:44:20;3.60;;;3.40;;
19653;SDS011;9975;48.046;7.804;2022-07-18T13:46:45;3.60;;;3.07;;
19653;SDS011;9975;48.046;7.804;2022-07-18T13:49:11;3.90;;;3.40;;
19653;SDS011;9975;48.046;7.804;2022-07-18T13:51:37;3.30;;;3.10;;
19653;SDS011;9975;48.046;7.804;2022-07-18T13:54:04;3.40;;;3.10;;
19653;SDS011;9975;48.046;7.804;2022-07-18T13:56:30;3.50;;;3.20;;
19653;SDS011;9975;48.046;7.804;2022-07-18T13:58:57;2.87;;;2.67;;
19653;SDS011;9975;48.046;7.804;2022-07-18T14:01:23;4.00;;;3.70;;
19653;SDS011;9975;48.046;7.804;2022-07-18T14:03:49;5.10;;;3.13;;
19653;SDS011;9975;48.046;7.804;2022-07-18T14:06:14;5.00;;;3.40;;
19653;SDS011;9975;48.046;7.804;2022-07-18T14:08:42;3.67;;;2.60;;
19653;SDS011;9975;48.046;7.804;2022-07-18T14:11:08;3.23;;;2.93;;
19653;SDS011;9975;48.046;7.804;2022-07-18T14:13:33;3.73;;;3.43;;
19653;SDS011;9975;48.046;7.804;2022-07-18T14:15:59;3.07;;;2.87;;
19653;SDS011;9975;48.046;7.804;2022-07-18T14:18:25;3.20;;;3.00;;
19653;SDS011;9975;48.046;7.804;2022-07-18T14:20:50;3.57;;;3.27;;
19653;SDS011;9975;48.046;7.804;2022-07-18T14:23:16;4.67;;;3.50;;
19653;SDS011;9975;48.046;7.804;2022-07-18T14:25:42;4.00;;;3.73;;
19653;SDS011;9975;48.046;7.804;2022-07-18T14:28:08;3.70;;;3.23;;
19653;SDS011;9975;48.046;7.804;2022-07-18T14:30:33;3.37;;;2.73;;
19653;SDS011;9975;48.046;7.804;2022-07-18T14:33:00;5.90;;;3.10;;
19653;SDS011;9975;48.046;7.804;2022-07-18T14:35:26;3.50;;;3.27;;
19653;SDS011;9975;48.046;7.804;2022-07-18T14:37:51;3.33;;;3.13;;
19653;SDS011;9975;48.046;7.804;2022-07-18T14:43:06;4.47;;;4.07;;
19653;SDS011;9975;48.046;7.804;2022-07-18T14:45:32;4.17;;;3.87;;
19653;SDS011;9975;48.046;7.804;2022-07-18T14:47:58;4.10;;;3.70;;
19653;SDS011;9975;48.046;7.804;2022-07-18T14:50:23;4.00;;;3.70;;
19653;SDS011;9975;48.046;7.804;2022-07-18T14:52:49;4.23;;;3.90;;
19653;SDS011;9975;48.046;7.804;2022-07-18T14:55:15;4.60;;;4.20;;
19653;SDS011;9975;48.046;7.804;2022-07-18T14:57:41;4.17;;;3.87;;
19653;SDS011;9975;48.046;7.804;2022-07-18T15:00:07;4.67;;;4.37;;
19653;SDS011;9975;48.046;7.804;2022-07-18T15:02:37;5.87;;;5.37;;
19653;SDS011;9975;48.046;7.804;2022-07-18T15:05:03;4.50;;;4.20;;
19653;SDS011;9975;48.046;7.804;2022-07-18T15:07:30;6.67;;;4.83;;
19653;SDS011;9975;48.046;7.804;2022-07-18T15:09:56;5.90;;;5.20;;
19653;SDS011;9975;48.046;7.804;2022-07-18T15:12:22;7.60;;;4.73;;
19653;SDS011;9975;48.046;7.804;2022-07-18T15:14:48;5.83;;;4.40;;
19653;SDS011;9975;48.046;7.804;2022-07-18T15:17:14;5.33;;;4.87;;
19653;SDS011;9975;48.046;7.804;2022-07-18T15:19:40;5.33;;;4.50;;
19653;SDS011;9975;48.046;7.804;2022-07-18T15:22:06;5.77;;;5.27;;
19653;SDS011;9975;48.046;7.804;2022-07-18T15:24:32;7.97;;;5.00;;
19653;SDS011;9975;48.046;7.804;2022-07-18T15:26:59;6.20;;;5.13;;
19653;SDS011;9975;48.046;7.804;2022-07-18T15:29:25;5.47;;;5.00;;
19653;SDS011;9975;48.046;7.804;2022-07-18T15:31:51;5.93;;;5.00;;
19653;SDS011;9975;48.046;7.804;2022-07-18T15:34:17;5.20;;;4.70;;
19653;SDS011;9975;48.046;7.804;2022-07-18T15:36:43;5.63;;;4.97;;
19653;SDS011;9975;48.046;7.804;2022-07-18T15:39:09;6.20;;;5.60;;
19653;SDS011;9975;48.046;7.804;2022-07-18T15:41:35;7.53;;;5.30;;
19653;SDS011;9975;48.046;7.804;2022-07-18T15:44:00;6.93;;;5.60;;
19653;SDS011;9975;48.046;7.804;2022-07-18T15:46:27;6.20;;;5.50;;
19653;SDS011;9975;48.046;7.804;2022-07-18T15:48:53;7.50;;;5.30;;
19653;SDS011;9975;48.046;7.804;2022-07-18T15:51:18;5.80;;;5.30;;
19653;SDS011;9975;48.046;7.804;2022-07-18T15:53:44;7.07;;;5.40;;
19653;SDS011;9975;48.046;7.804;2022-07-18T15:56:10;6.10;;;5.00;;
19653;SDS011;9975;48.046;7.804;2022-07-18T15:58:35;7.83;;;5.80;;
19653;SDS011;9975;48.046;7.804;2022-07-18T16:01:01;6.17;;;4.60;;
19653;SDS011;9975;48.046;7.804;2022-07-18T16:03:27;6.53;;;5.03;;
19653;SDS011;9975;48.046;7.804;2022-07-18T16:05:53;6.77;;;5.10;;
19653;SDS011;9975;48.046;7.804;2022-07-18T16:08:22;5.10;;;4.60;;
19653;SDS011;9975;48.046;7.804;2022-07-18T16:10:48;6.73;;;4.83;;
19653;SDS011;9975;48.046;7.804;2022-07-18T16:13:14;8.23;;;5.20;;
19653;SDS011;9975;48.046;7.804;2022-07-18T16:15:41;9.13;;;5.60;;
19653;SDS011;9975;48.046;7.804;2022-07-18T16:18:08;10.50;;;4.80;;
19653;SDS011;9975;48.046;7.804;2022-07-18T16:20:33;5.13;;;4.60;;
19653;SDS011;9975;48.046;7.804;2022-07-18T16:22:59;4.67;;;4.27;;
19653;SDS011;9975;48.046;7.804;2022-07-18T16:25:25;4.47;;;4.03;;
19653;SDS011;9975;48.046;7.804;2022-07-18T16:27:51;6.20;;;3.90;;
19653;SDS011;9975;48.046;7.804;2022-07-18T16:30:17;4.80;;;4.40;;
19653;SDS011;9975;48.046;7.804;2022-07-18T16:32:43;3.73;;;3.43;;
19653;SDS011;9975;48.046;7.804;2022-07-18T16:35:08;6.23;;;4.20;;
19653;SDS011;9975;48.046;7.804;2022-07-18T16:37:34;3.40;;;3.10;;
19653;SDS011;9975;48.046;7.804;2022-07-18T16:40:00;6.30;;;3.37;;
19653;SDS011;9975;48.046;7.804;2022-07-18T16:42:27;3.80;;;3.50;;
19653;SDS011;9975;48.046;7.804;2022-07-18T16:44:52;5.80;;;3.67;;
19653;SDS011;9975;48.046;7.804;2022-07-18T16:47:19;6.83;;;3.47;;
19653;SDS011;9975;48.046;7.804;2022-07-18T16:49:45;3.33;;;3.10;;
19653;SDS011;9975;48.046;7.804;2022-07-18T16:52:11;5.27;;;3.37;;
19653;SDS011;9975;48.046;7.804;2022-07-18T16:54:36;3.50;;;3.20;;
19653;SDS011;9975;48.046;7.804;2022-07-18T16:57:02;4.90;;;3.37;;
19653;SDS011;9975;48.046;7.804;2022-07-18T16:59:28;6.93;;;3.40;;
19653;SDS011;9975;48.046;7.804;2022-07-18T17:01:54;5.73;;;3.20;;
19653;SDS011;9975;48.046;7.804;2022-07-18T17:04:20;4.53;;;3.40;;
19653;SDS011;9975;48.046;7.804;2022-07-18T17:06:48;3.13;;;2.83;;
19653;SDS011;9975;48.046;7.804;2022-07-18T17:09:13;5.13;;;3.40;;
19653;SDS011;9975;48.046;7.804;2022-07-18T17:11:39;7.20;;;3.50;;
19653;SDS011;9975;48.046;7.804;2022-07-18T17:14:05;8.70;;;4.03;;
19653;SDS011;9975;48.046;7.804;2022-07-18T17:16:31;7.07;;;5.23;;
19653;SDS011;9975;48.046;7.804;2022-07-18T17:18:57;3.90;;;3.20;;
19653;SDS011;9975;48.046;7.804;2022-07-18T17:21:22;3.40;;;3.10;;
19653;SDS011;9975;48.046;7.804;2022-07-18T17:23:49;4.47;;;4.07;;
19653;SDS011;9975;48.046;7.804;2022-07-18T17:26:15;3.37;;;3.17;;
19653;SDS011;9975;48.046;7.804;2022-07-18T17:28:41;3.23;;;2.80;;
19653;SDS011;9975;48.046;7.804;2022-07-18T17:31:07;3.33;;;3.13;;
19653;SDS011;9975;48.046;7.804;2022-07-18T17:33:33;4.63;;;3.20;;
19653;SDS011;9975;48.046;7.804;2022-07-18T17:36:00;3.03;;;2.73;;
19653;SDS011;9975;48.046;7.804;2022-07-18T17:38:26;4.00;;;3.33;;
19653;SDS011;9975;48.046;7.804;2022-07-18T17:40:53;5.10;;;3.00;;
19653;SDS011;9975;48.046;7.804;2022-07-18T17:43:19;3.57;;;3.07;;
19653;SDS011;9975;48.046;7.804;2022-07-18T17:45:46;3.03;;;2.80;;
19653;SDS011;9975;48.046;7.804;2022-07-18T17:48:15;3.70;;;3.40;;
19653;SDS011;9975;48.046;7.804;2022-07-18T17:50:41;2.90;;;2.70;;
19653;SDS011;9975;48.046;7.804;2022-07-18T17:53:07;3.30;;;2.60;;
19653;SDS011;9975;48.046;7.804;2022-07-18T17:55:33;5.30;;;3.47;;
19653;SDS011;9975;48.046;7.804;2022-07-18T17:57:59;2.83;;;2.63;;
19653;SDS011;9975;48.046;7.804;2022-07-18T18:00:24;3.50;;;3.20;;
19653;SDS011;9975;48.046;7.804;2022-07-18T18:02:50;2.83;;;2.60;;